Time;durP1;ratioP1;P1;durP2;ratioP2;P2;SDS_P1;SDS_P2;PMS_P1;PMS_P2;Temp;Humidity;BMP_temperature;BMP_pressure;BME280_temperature;BME280_humidity;BME280_pressure;Samples;Min_cycle;Max_cycle;Signal;HPM_P1;HPM_P2
2022/09/28 00:00:13;;;;;;;10.30;6.13;;;8.80;99.90;;;;;;5018550;28;20037;-38
2022/09/28 00:02:39;;;;;;;11.00;6.43;;;8.80;99.90;;;;;;5022283;28;20045;-38
2022/09/28 00:05:05;;;;;;;7.28;4.63;;;8.80;99.90;;;;;;5030847;28;20034;-38
2022/09/28 00:07:31;;;;;;;10.15;6.10;;;8.80;99.90;;;;;;5036191;28;20082;-37
2022/09/28 00:09:56;;;;;;;11.45;6.18;;;8.80;99.90;;;;;;5031616;28;20045;-38
2022/09/28 00:12:22;;;;;;;12.45;6.30;;;8.80;99.90;;;;;;5030081;28;20457;-39
2022/09/28 00:14:48;;;;;;;12.15;7.10;;;8.80;99.90;;;;;;5031373;28;20049;-39
2022/09/28 00:17:15;;;;;;;10.15;6.07;;;8.70;99.90;;;;;;5020438;28;20074;-38
2022/09/28 00:19:42;;;;;;;10.45;5.68;;;8.70;99.90;;;;;;4995925;28;20045;-39
2022/09/28 00:22:08;;;;;;;12.63;6.80;;;8.70;99.90;;;;;;5021680;28;20045;-37
2022/09/28 00:24:34;;;;;;;11.73;6.05;;;8.70;99.90;;;;;;5029606;28;20120;-38
2022/09/28 00:27:01;;;;;;;9.25;5.25;;;8.70;99.90;;;;;;5030125;28;20034;-39
2022/09/28 00:29:35;;;;;;;12.15;6.97;;;8.70;99.90;;;;;;5026447;28;20049;-38
2022/09/28 00:32:03;;;;;;;11.57;6.70;;;8.70;99.90;;;;;;5029658;28;20040;-37
2022/09/28 00:34:32;;;;;;;12.13;5.75;;;8.70;99.90;;;;;;5029616;28;20041;-43
2022/09/28 00:36:59;;;;;;;9.63;6.18;;;8.70;99.90;;;;;;5028186;28;20083;-39
2022/09/28 00:39:25;;;;;;;9.90;5.95;;;8.70;99.90;;;;;;5030434;28;20044;-38
2022/09/28 00:41:52;;;;;;;13.10;6.50;;;8.70;99.90;;;;;;5029750;28;20068;-39
2022/09/28 00:44:24;;;;;;;8.10;5.50;;;8.70;99.90;;;;;;5027130;28;20041;-38
2022/09/28 00:46:55;;;;;;;11.52;5.80;;;8.70;99.90;;;;;;5029067;28;20049;-39
2022/09/28 00:49:32;;;;;;;11.45;7.10;;;8.70;99.90;;;;;;5029334;28;20072;-38
2022/09/28 00:51:59;;;;;;;11.27;7.55;;;8.70;99.90;;;;;;5031340;28;20856;-39
2022/09/28 00:54:25;;;;;;;10.60;6.18;;;8.70;99.90;;;;;;5031262;28;20099;-40
2022/09/28 00:56:51;;;;;;;13.43;7.57;;;8.70;99.90;;;;;;5029077;28;20030;-38
2022/09/28 00:59:17;;;;;;;11.55;7.50;;;8.70;99.90;;;;;;5030113;28;20133;-38
2022/09/28 01:01:43;;;;;;;11.48;7.07;;;8.70;99.90;;;;;;5031499;28;20075;-38
2022/09/28 01:04:09;;;;;;;14.18;7.70;;;8.70;99.90;;;;;;5028651;28;20073;-37
2022/09/28 01:06:37;;;;;;;13.10;7.45;;;8.70;99.90;;;;;;5026476;28;20036;-38
2022/09/28 01:09:09;;;;;;;11.30;6.18;;;8.70;99.90;;;;;;5029842;28;20037;-37
2022/09/28 01:11:37;;;;;;;9.98;5.85;;;8.70;99.90;;;;;;5037810;28;20033;-39
2022/09/28 01:14:05;;;;;;;14.10;7.45;;;8.70;99.90;;;;;;5030766;28;20542;-38
2022/09/28 01:16:52;;;;;;;11.05;7.20;;;8.70;99.90;;;;;;5033482;28;20132;-38
2022/09/28 01:19:42;;;;;;;8.23;5.72;;;8.70;99.90;;;;;;5028700;28;20052;-37
2022/09/28 01:22:32;;;;;;;13.88;7.15;;;8.60;99.90;;;;;;5026354;28;20041;-37
2022/09/28 01:25:31;;;;;;;13.23;7.10;;;8.70;99.90;;;;;;5027100;28;20046;-37
2022/09/28 01:28:03;;;;;;;12.38;7.43;;;8.60;99.90;;;;;;5035091;28;20042;-37
2022/09/28 01:30:36;;;;;;;10.38;6.35;;;8.60;99.90;;;;;;5029844;28;20087;-38
2022/09/28 01:33:08;;;;;;;11.95;7.18;;;8.60;99.90;;;;;;5029320;28;20506;-37
2022/09/28 01:35:42;;;;;;;14.45;7.03;;;8.60;99.90;;;;;;5025866;28;20541;-39
2022/09/28 01:38:22;;;;;;;10.48;6.07;;;8.60;99.90;;;;;;5033555;28;20574;-38
2022/09/28 01:40:49;;;;;;;11.27;5.97;;;8.60;99.90;;;;;;5028401;28;20126;-37
2022/09/28 01:43:19;;;;;;;12.23;6.88;;;8.60;99.90;;;;;;5034755;28;20042;-36
2022/09/28 01:46:09;;;;;;;11.25;6.05;;;8.60;99.90;;;;;;5034842;28;20037;-37
2022/09/28 01:48:53;;;;;;;10.10;5.90;;;8.60;99.90;;;;;;5026525;28;20038;-37
2022/09/28 01:51:51;;;;;;;11.77;6.05;;;8.60;99.90;;;;;;5018204;28;20053;-37
2022/09/28 01:54:40;;;;;;;12.70;5.78;;;8.70;99.90;;;;;;5017081;28;20466;-37
2022/09/28 01:57:32;;;;;;;10.80;6.07;;;8.70;99.90;;;;;;5020375;28;20042;-37
2022/09/28 02:00:08;;;;;;;10.05;5.65;;;8.70;99.90;;;;;;5022553;28;20124;-37
2022/09/28 02:03:06;;;;;;;11.85;7.45;;;8.70;99.90;;;;;;5025460;28;20585;-36
2022/09/28 02:05:34;;;;;;;11.57;6.72;;;8.70;99.90;;;;;;5004988;28;20057;-37
2022/09/28 02:08:27;;;;;;;11.88;6.80;;;8.70;99.90;;;;;;5021247;28;20041;-37
2022/09/28 02:11:03;;;;;;;11.05;7.30;;;8.70;99.90;;;;;;5022392;28;20051;-37
2022/09/28 02:13:39;;;;;;;11.57;6.63;;;8.70;99.90;;;;;;5025742;28;20044;-37
2022/09/28 02:16:08;;;;;;;16.67;7.97;;;8.70;99.90;;;;;;5022218;28;22295;-37
2022/09/28 02:18:34;;;;;;;11.32;6.78;;;8.70;99.90;;;;;;5024773;28;20046;-36
2022/09/28 02:21:11;;;;;;;15.70;8.57;;;8.70;99.90;;;;;;5021665;28;20041;-36
2022/09/28 02:23:41;;;;;;;11.63;6.50;;;8.70;99.90;;;;;;5021474;28;20052;-37
2022/09/28 02:26:11;;;;;;;11.95;7.50;;;8.60;99.90;;;;;;5023090;28;20586;-37
2022/09/28 02:28:36;;;;;;;14.27;7.68;;;8.60;99.90;;;;;;5024833;28;20064;-37
2022/09/28 02:31:02;;;;;;;14.02;8.02;;;8.60;99.90;;;;;;5023375;28;20473;-37
2022/09/28 02:33:30;;;;;;;12.40;6.82;;;8.60;99.90;;;;;;5023029;28;20160;-36
2022/09/28 02:35:58;;;;;;;12.48;7.32;;;8.60;99.90;;;;;;5023653;28;20444;-36
2022/09/28 02:38:24;;;;;;;14.77;8.32;;;8.60;99.90;;;;;;5020480;28;20553;-37
2022/09/28 02:41:03;;;;;;;15.82;9.43;;;8.60;99.90;;;;;;5023148;28;20044;-37
2022/09/28 02:43:33;;;;;;;17.40;9.10;;;8.60;99.90;;;;;;5026576;28;20053;-37
2022/09/28 02:46:14;;;;;;;15.48;8.88;;;8.60;99.90;;;;;;5035587;28;20049;-37
2022/09/28 02:48:57;;;;;;;22.27;10.57;;;8.60;99.90;;;;;;5033206;28;20081;-36
2022/09/28 02:51:35;;;;;;;19.02;10.05;;;8.60;99.90;;;;;;5031602;28;20091;-36
2022/09/28 02:54:00;;;;;;;25.92;9.95;;;8.60;99.90;;;;;;5028304;28;20042;-37
2022/09/28 02:56:44;;;;;;;21.40;9.57;;;8.60;99.90;;;;;;5029321;28;20078;-37
2022/09/28 02:59:24;;;;;;;31.50;12.10;;;8.50;99.90;;;;;;5029028;28;20490;-38
2022/09/28 03:02:06;;;;;;;24.38;11.02;;;8.50;99.90;;;;;;5023348;28;20042;-37
2022/09/28 03:04:31;;;;;;;23.08;9.82;;;8.50;99.90;;;;;;5022827;28;20033;-37
2022/09/28 03:07:15;;;;;;;23.55;10.98;;;8.50;99.90;;;;;;5020323;28;20510;-38
2022/09/28 03:09:54;;;;;;;34.05;12.00;;;8.40;99.90;;;;;;5023856;28;20048;-37
2022/09/28 03:12:23;;;;;;;16.10;8.75;;;8.50;99.90;;;;;;5020462;28;20121;-37
2022/09/28 03:15:25;;;;;;;31.38;11.63;;;8.50;99.90;;;;;;5022838;28;20042;-36
2022/09/28 03:17:51;;;;;;;20.52;9.55;;;8.50;99.90;;;;;;5028901;28;20552;-37
2022/09/28 03:20:17;;;;;;;23.48;10.60;;;8.50;99.90;;;;;;5026138;28;20037;-36
2022/09/28 03:22:43;;;;;;;58.88;12.52;;;8.50;99.90;;;;;;5023032;28;20502;-37
2022/09/28 03:25:09;;;;;;;41.13;11.38;;;8.50;99.90;;;;;;5020189;28;20052;-36
2022/09/28 03:27:35;;;;;;;22.05;9.93;;;8.50;99.90;;;;;;5015563;28;20473;-36
2022/09/28 03:30:01;;;;;;;27.23;10.55;;;8.50;99.90;;;;;;5020469;28;20052;-36
2022/09/28 03:32:26;;;;;;;27.17;10.15;;;8.40;99.90;;;;;;5021681;28;20741;-36
2022/09/28 03:34:53;;;;;;;26.45;9.30;;;8.50;99.90;;;;;;5023295;28;20061;-36
2022/09/28 03:37:18;;;;;;;27.10;11.02;;;8.40;99.90;;;;;;5029345;28;20494;-37
2022/09/28 03:39:44;;;;;;;43.33;12.18;;;8.40;99.90;;;;;;5023394;28;20049;-36
2022/09/28 03:42:10;;;;;;;20.40;10.52;;;8.40;99.90;;;;;;5022392;28;20541;-36
2022/09/28 03:44:35;;;;;;;28.58;10.93;;;8.40;99.90;;;;;;5024633;28;20068;-37
2022/09/28 03:47:01;;;;;;;31.60;10.60;;;8.30;99.90;;;;;;5028128;28;20091;-37
2022/09/28 03:49:27;;;;;;;50.97;12.20;;;8.30;99.90;;;;;;5022330;28;20111;-37
2022/09/28 03:51:52;;;;;;;49.10;11.45;;;8.30;99.90;;;;;;5021600;28;20045;-37
2022/09/28 03:54:18;;;;;;;65.43;13.57;;;8.30;99.90;;;;;;5022227;28;20068;-37
2022/09/28 03:56:44;;;;;;;27.65;10.65;;;8.30;99.90;;;;;;5022336;28;20062;-37
2022/09/28 03:59:10;;;;;;;38.10;13.02;;;8.30;99.90;;;;;;5021311;28;20079;-35
2022/09/28 04:01:35;;;;;;;24.38;9.80;;;8.20;99.90;;;;;;5019670;28;20471;-36
2022/09/28 04:04:01;;;;;;;73.90;15.10;;;8.30;99.90;;;;;;5022166;28;20530;-36
2022/09/28 04:06:27;;;;;;;49.35;12.45;;;8.20;99.90;;;;;;5024533;28;20037;-38
2022/09/28 04:08:52;;;;;;;62.30;15.05;;;8.30;99.90;;;;;;5022349;28;20045;-36
2022/09/28 04:11:18;;;;;;;47.25;13.63;;;8.20;99.90;;;;;;5021083;28;20048;-37
2022/09/28 04:13:48;;;;;;;35.10;11.70;;;8.20;99.90;;;;;;5022646;28;20044;-36
2022/09/28 04:16:14;;;;;;;32.67;10.98;;;8.20;99.90;;;;;;5024270;28;20494;-37
2022/09/28 04:18:41;;;;;;;31.10;10.52;;;8.20;99.90;;;;;;5030756;28;20393;-36
2022/09/28 04:21:10;;;;;;;44.72;11.27;;;8.30;99.90;;;;;;5031552;28;20517;-37
2022/09/28 04:23:37;;;;;;;26.67;12.27;;;8.20;99.90;;;;;;5027750;28;20037;-36
2022/09/28 04:26:05;;;;;;;43.45;11.88;;;8.30;99.90;;;;;;5018876;28;20068;-37
2022/09/28 04:31:18;;;;;;;23.48;10.75;;;8.30;99.90;;;;;;5019668;28;20498;-38
2022/09/28 04:33:44;;;;;;;19.83;10.93;;;8.30;99.90;;;;;;5015277;28;20088;-38
2022/09/28 04:36:10;;;;;;;20.95;11.15;;;8.20;99.90;;;;;;5016075;28;20056;-37
2022/09/28 04:38:37;;;;;;;17.42;9.43;;;8.20;99.90;;;;;;5018488;28;20470;-37
2022/09/28 04:41:03;;;;;;;19.30;10.80;;;8.20;99.90;;;;;;5019802;28;20525;-38
2022/09/28 04:43:28;;;;;;;18.00;10.32;;;8.20;99.90;;;;;;5022488;28;20049;-38
2022/09/28 04:46:01;;;;;;;19.17;9.65;;;8.20;99.90;;;;;;5017971;28;20033;-37
2022/09/28 04:48:28;;;;;;;16.25;8.98;;;8.20;99.90;;;;;;5020760;28;20073;-37
2022/09/28 04:50:59;;;;;;;15.55;9.02;;;8.20;99.90;;;;;;5023919;28;20490;-37
2022/09/28 04:53:26;;;;;;;17.70;9.20;;;8.20;99.90;;;;;;5020774;28;20045;-36
2022/09/28 04:56:00;;;;;;;15.52;7.93;;;8.10;99.90;;;;;;5014218;28;20038;-37
2022/09/28 04:58:26;;;;;;;15.10;8.65;;;8.10;99.90;;;;;;5012543;28;20029;-37
2022/09/28 05:00:55;;;;;;;15.73;9.13;;;8.10;99.90;;;;;;5016693;28;20480;-36
2022/09/28 05:03:21;;;;;;;16.60;9.07;;;8.10;99.90;;;;;;5015545;28;20073;-36
2022/09/28 05:05:48;;;;;;;14.02;7.43;;;8.10;99.90;;;;;;5014185;28;20125;-37
2022/09/28 05:08:14;;;;;;;14.95;7.68;;;8.20;99.90;;;;;;5017369;28;20038;-36
2022/09/28 05:10:39;;;;;;;13.30;7.78;;;8.10;99.90;;;;;;5015997;28;20045;-37
2022/09/28 05:13:06;;;;;;;13.48;7.20;;;8.20;99.90;;;;;;5018312;28;20060;-36
2022/09/28 05:15:34;;;;;;;11.90;7.00;;;8.20;99.90;;;;;;5013492;28;20544;-37
2022/09/28 05:18:00;;;;;;;12.63;7.32;;;8.20;99.90;;;;;;5021050;28;20213;-37
2022/09/28 05:20:25;;;;;;;14.55;8.38;;;8.20;99.90;;;;;;5023765;28;20048;-38
2022/09/28 05:22:51;;;;;;;14.77;7.78;;;8.20;99.90;;;;;;5028427;28;20518;-38
2022/09/28 05:25:17;;;;;;;13.40;7.88;;;8.20;99.90;;;;;;5031361;28;20508;-37
2022/09/28 05:27:43;;;;;;;9.43;6.18;;;8.20;99.90;;;;;;5031272;28;20443;-37
2022/09/28 05:30:09;;;;;;;14.27;8.10;;;8.20;99.90;;;;;;5019122;28;20090;-37
2022/09/28 05:32:43;;;;;;;14.77;8.52;;;8.20;99.90;;;;;;5024445;28;20071;-37
2022/09/28 05:35:12;;;;;;;15.57;8.40;;;8.10;99.90;;;;;;5027350;28;20462;-37
2022/09/28 05:37:39;;;;;;;13.48;7.93;;;8.20;99.90;;;;;;5032762;28;20039;-37
2022/09/28 05:40:06;;;;;;;12.38;7.03;;;8.20;99.90;;;;;;5030568;28;20518;-37
2022/09/28 05:42:32;;;;;;;12.73;7.57;;;8.10;99.90;;;;;;5029699;28;20483;-37
2022/09/28 05:44:58;;;;;;;14.35;7.95;;;8.20;99.90;;;;;;5029307;28;20137;-37
2022/09/28 05:47:24;;;;;;;14.23;7.22;;;8.20;99.90;;;;;;5026911;28;20049;-36
2022/09/28 05:49:51;;;;;;;13.55;8.55;;;8.20;99.90;;;;;;5025242;28;20037;-38
2022/09/28 05:52:17;;;;;;;12.15;8.00;;;8.30;99.90;;;;;;5023435;28;20447;-37
2022/09/28 05:54:42;;;;;;;12.48;7.32;;;8.20;99.90;;;;;;5031108;28;20076;-37
2022/09/28 05:57:08;;;;;;;13.45;8.07;;;8.30;99.90;;;;;;5030760;28;20037;-36
2022/09/28 05:59:34;;;;;;;13.15;7.32;;;8.30;99.90;;;;;;5029244;28;20034;-36
2022/09/28 06:02:01;;;;;;;13.57;7.47;;;8.20;99.90;;;;;;5033069;28;20053;-38
2022/09/28 06:04:27;;;;;;;14.38;7.80;;;8.20;99.90;;;;;;5035277;28;20041;-36
2022/09/28 06:06:53;;;;;;;17.85;7.63;;;8.20;99.90;;;;;;5033348;28;20085;-37
2022/09/28 06:09:19;;;;;;;14.63;7.53;;;8.20;99.90;;;;;;5027541;28;20081;-37
2022/09/28 06:11:45;;;;;;;14.55;8.25;;;8.20;99.90;;;;;;5032386;28;20468;-36
2022/09/28 06:14:12;;;;;;;11.85;6.43;;;8.20;99.90;;;;;;5030834;28;20126;-37
2022/09/28 06:16:39;;;;;;;12.80;7.32;;;8.20;99.90;;;;;;5031455;28;20081;-37
2022/09/28 06:19:04;;;;;;;16.20;8.23;;;8.20;99.90;;;;;;5029693;28;20132;-36
2022/09/28 06:21:30;;;;;;;14.68;7.60;;;8.20;99.90;;;;;;5034595;28;20542;-37
2022/09/28 06:23:56;;;;;;;15.48;7.30;;;8.20;99.90;;;;;;5030581;28;20073;-36
2022/09/28 06:26:22;;;;;;;14.18;7.97;;;8.20;99.90;;;;;;5031711;28;20056;-37
2022/09/28 06:28:48;;;;;;;14.52;7.65;;;8.30;99.90;;;;;;5031066;28;20049;-37
2022/09/28 06:31:14;;;;;;;17.35;8.02;;;8.20;99.90;;;;;;5026674;28;20041;-37
2022/09/28 06:33:40;;;;;;;14.57;7.15;;;8.20;99.90;;;;;;5031646;28;20045;-36
2022/09/28 06:36:09;;;;;;;12.50;6.55;;;8.30;99.90;;;;;;5027890;28;20049;-38
2022/09/28 06:38:34;;;;;;;11.52;6.78;;;8.30;99.90;;;;;;5020823;28;20041;-38
2022/09/28 06:41:00;;;;;;;13.55;7.20;;;8.30;99.90;;;;;;5032415;28;20041;-37
2022/09/28 06:43:26;;;;;;;13.60;7.43;;;8.30;99.90;;;;;;5032162;28;20502;-36
2022/09/28 06:45:52;;;;;;;10.98;6.13;;;8.40;99.90;;;;;;5031560;28;20052;-36
2022/09/28 06:48:19;;;;;;;17.38;6.63;;;8.40;99.90;;;;;;5037725;28;20099;-36
2022/09/28 06:50:46;;;;;;;18.23;7.93;;;8.40;99.90;;;;;;5027830;28;20037;-38
2022/09/28 06:53:13;;;;;;;13.10;6.60;;;8.40;99.90;;;;;;5028565;28;20033;-36
2022/09/28 06:55:41;;;;;;;8.50;5.10;;;8.40;99.90;;;;;;5030708;28;20044;-37
2022/09/28 06:58:10;;;;;;;11.20;6.00;;;8.40;99.90;;;;;;5029649;28;20439;-37
2022/09/28 07:00:37;;;;;;;12.95;6.22;;;8.40;99.90;;;;;;5039526;28;20087;-37
2022/09/28 07:03:09;;;;;;;12.50;6.43;;;8.40;99.90;;;;;;5033709;28;20120;-37
2022/09/28 07:05:36;;;;;;;10.35;5.18;;;8.50;99.90;;;;;;5034182;28;20041;-37
2022/09/28 07:08:03;;;;;;;12.10;6.53;;;8.50;99.90;;;;;;5029384;28;20037;-38
2022/09/28 07:10:30;;;;;;;11.10;5.18;;;8.50;99.90;;;;;;5032138;28;20048;-37
2022/09/28 07:12:56;;;;;;;12.45;4.90;;;8.50;99.90;;;;;;5026589;28;20393;-37
2022/09/28 07:15:23;;;;;;;10.13;5.43;;;8.50;99.90;;;;;;5029943;28;20163;-36
2022/09/28 07:17:56;;;;;;;8.90;4.60;;;8.50;99.90;;;;;;5028006;28;20522;-37
2022/09/28 07:20:22;;;;;;;19.33;5.82;;;8.50;99.90;;;;;;5035523;28;21648;-36
2022/09/28 07:22:55;;;;;;;16.25;6.50;;;8.50;99.90;;;;;;5030265;28;20126;-37
2022/09/28 07:25:22;;;;;;;31.52;6.28;;;8.60;99.90;;;;;;5035665;28;20539;-37
2022/09/28 07:27:48;;;;;;;45.15;6.85;;;8.60;99.90;;;;;;5029194;28;20037;-37
2022/09/28 07:30:14;;;;;;;14.27;4.68;;;8.60;99.90;;;;;;5031318;28;20187;-38
2022/09/28 07:32:40;;;;;;;15.82;5.57;;;8.60;99.90;;;;;;5037934;28;20045;-37
2022/09/28 07:35:09;;;;;;;18.95;5.38;;;8.60;99.90;;;;;;5037657;28;20155;-37
2022/09/28 07:37:35;;;;;;;10.35;4.82;;;8.70;99.90;;;;;;5030190;28;20033;-37
2022/09/28 07:42:47;;;;;;;11.68;4.32;;;8.80;99.90;;;;;;5037749;28;20080;-38
2022/09/28 07:45:13;;;;;;;33.88;5.47;;;8.80;99.90;;;;;;5029905;28;20578;-37
2022/09/28 07:47:39;;;;;;;15.07;5.22;;;8.90;99.90;;;;;;5021971;28;20037;-37
2022/09/28 07:50:05;;;;;;;24.08;5.30;;;9.00;99.90;;;;;;5029828;28;20131;-37
2022/09/28 07:52:33;;;;;;;7.43;4.28;;;9.10;99.90;;;;;;5022140;28;20052;-37
2022/09/28 07:55:00;;;;;;;10.70;3.53;;;9.00;99.90;;;;;;5028077;28;20045;-37
2022/09/28 07:57:27;;;;;;;6.07;3.47;;;9.00;99.90;;;;;;5027553;28;20045;-37
2022/09/28 07:59:53;;;;;;;11.20;3.67;;;9.00;99.90;;;;;;5026527;28;20099;-37
2022/09/28 08:02:19;;;;;;;6.97;3.80;;;9.00;99.90;;;;;;5028843;28;20402;-37
2022/09/28 08:04:49;;;;;;;23.60;4.22;;;9.00;99.90;;;;;;5033275;28;20071;-37
2022/09/28 08:07:16;;;;;;;14.82;4.72;;;9.00;99.90;;;;;;5029850;28;20494;-37
2022/09/28 08:09:43;;;;;;;9.25;3.70;;;9.00;99.90;;;;;;5035497;28;20414;-37
2022/09/28 08:12:09;;;;;;;6.40;3.42;;;9.00;99.90;;;;;;5026441;28;20128;-38
2022/09/28 08:14:36;;;;;;;6.53;3.15;;;9.10;99.90;;;;;;5027528;28;20037;-37
2022/09/28 08:17:05;;;;;;;7.88;3.00;;;9.10;99.90;;;;;;5027288;28;20564;-37
2022/09/28 08:22:17;;;;;;;14.05;4.35;;;9.30;99.90;;;;;;5024782;28;20049;-35
2022/09/28 08:24:44;;;;;;;7.13;3.60;;;9.40;99.90;;;;;;5032448;28;20372;-36
2022/09/28 08:27:11;;;;;;;6.47;3.75;;;9.50;99.90;;;;;;5015802;28;20135;-36
2022/09/28 08:29:36;;;;;;;6.40;3.70;;;9.70;99.90;;;;;;5009119;28;20061;-36
2022/09/28 08:32:05;;;;;;;7.70;3.08;;;9.80;99.90;;;;;;5030960;28;20048;-37
2022/09/28 08:34:30;;;;;;;5.60;3.38;;;10.00;99.90;;;;;;5028863;28;20044;-37
2022/09/28 08:36:57;;;;;;;4.95;2.80;;;10.20;99.90;;;;;;5027560;28;20038;-37
2022/09/28 08:39:22;;;;;;;6.55;3.45;;;10.30;99.90;;;;;;5031589;28;20044;-38
2022/09/28 08:42:09;;;;;;;6.75;3.33;;;10.40;99.90;;;;;;5034085;28;20045;-37
2022/09/28 08:44:45;;;;;;;5.25;2.83;;;10.50;99.90;;;;;;5035091;28;20132;-39
2022/09/28 08:50:10;;;;;;;4.53;2.75;;;10.60;99.90;;;;;;5025182;28;20153;-38
2022/09/28 08:52:39;;;;;;;6.07;2.60;;;10.60;99.90;;;;;;5028903;28;20129;-38
2022/09/28 08:55:44;;;;;;;5.30;2.75;;;10.50;99.90;;;;;;5036653;28;20652;-38
2022/09/28 08:58:09;;;;;;;4.40;2.28;;;10.50;99.90;;;;;;4966152;28;20094;-37
2022/09/28 09:00:50;;;;;;;4.35;2.35;;;10.50;99.90;;;;;;4962847;28;20027;-37
2022/09/28 09:03:26;;;;;;;5.35;2.70;;;10.60;99.90;;;;;;5000969;28;20128;-38
2022/09/28 09:06:26;;;;;;;4.07;2.30;;;10.70;99.90;;;;;;5035113;28;20037;-39
2022/09/28 09:09:06;;;;;;;4.35;1.77;;;10.70;99.90;;;;;;5027951;28;20045;-39
2022/09/28 09:11:55;;;;;;;3.17;1.67;;;10.90;99.90;;;;;;5021282;28;20506;-39
2022/09/28 09:14:39;;;;;;;3.05;1.90;;;11.10;99.90;;;;;;5023852;28;20051;-36
2022/09/28 09:17:48;;;;;;;2.75;1.73;;;11.20;99.90;;;;;;5019284;28;20038;-36
2022/09/28 09:20:51;;;;;;;3.05;1.30;;;11.30;99.90;;;;;;5032681;28;20403;-37
2022/09/28 09:23:28;;;;;;;3.05;1.40;;;11.50;99.90;;;;;;5019503;28;20037;-36
2022/09/28 09:26:02;;;;;;;3.97;1.55;;;11.60;99.90;;;;;;5024363;28;20099;-35
2022/09/28 09:28:44;;;;;;;3.28;1.30;;;11.80;99.90;;;;;;5032628;28;20041;-36
2022/09/28 09:31:37;;;;;;;3.50;1.50;;;12.00;99.90;;;;;;5030988;28;20049;-36
2022/09/28 09:34:20;;;;;;;3.53;1.40;;;12.20;99.90;;;;;;5034764;28;20505;-36
2022/09/28 09:37:15;;;;;;;4.25;1.10;;;12.30;99.90;;;;;;5031416;28;20794;-36
2022/09/28 09:40:13;;;;;;;2.10;1.00;;;12.40;99.90;;;;;;5021752;28;20498;-35
2022/09/28 09:42:57;;;;;;;3.25;1.13;;;12.50;99.90;;;;;;5013970;28;20057;-36
2022/09/28 09:45:38;;;;;;;1.58;0.55;;;12.60;99.90;;;;;;5029969;28;20531;-37
2022/09/28 09:48:19;;;;;;;5.32;0.82;;;12.70;99.90;;;;;;5038499;28;20049;-36
2022/09/28 09:50:51;;;;;;;2.63;0.40;;;12.80;99.90;;;;;;5030665;28;20049;-38
2022/09/28 09:53:29;;;;;;;1.38;0.28;;;12.70;99.90;;;;;;5035423;28;20524;-37
2022/09/28 09:56:02;;;;;;;2.25;0.38;;;12.60;99.90;;;;;;5031780;28;20091;-36
2022/09/28 09:58:45;;;;;;;0.30;0.17;;;12.70;99.90;;;;;;5028879;28;20521;-35
2022/09/28 10:01:14;;;;;;;3.17;0.17;;;12.80;99.90;;;;;;5034825;28;20047;-37
2022/09/28 10:03:47;;;;;;;1.63;0.40;;;13.00;99.90;;;;;;5030077;28;20079;-36
2022/09/28 10:06:24;;;;;;;2.00;0.30;;;13.20;99.90;;;;;;5035719;28;20049;-37
2022/09/28 10:09:21;;;;;;;2.13;0.25;;;13.40;99.90;;;;;;5029079;28;20041;-35
2022/09/28 10:11:51;;;;;;;2.05;0.30;;;13.60;99.90;;;;;;5037221;28;20075;-36
2022/09/28 10:14:22;;;;;;;0.73;0.20;;;13.80;99.90;;;;;;5038943;28;20442;-37
2022/09/28 10:16:50;;;;;;;1.25;0.30;;;13.90;99.90;;;;;;5033501;28;20390;-37
2022/09/28 10:19:20;;;;;;;1.55;0.30;;;13.80;99.90;;;;;;5039991;28;20078;-37
2022/09/28 10:21:51;;;;;;;1.23;0.30;;;13.90;99.90;;;;;;5039965;28;20045;-37
2022/09/28 10:24:35;;;;;;;1.27;0.33;;;14.10;99.90;;;;;;5028684;28;20033;-37
2022/09/28 10:27:07;;;;;;;0.38;0.20;;;14.20;99.90;;;;;;5029505;28;20095;-36
2022/09/28 10:29:48;;;;;;;0.70;0.20;;;14.40;99.90;;;;;;5032740;28;20055;-36
2022/09/28 10:32:19;;;;;;;0.95;0.20;;;14.30;99.90;;;;;;5028892;28;20119;-37
2022/09/28 10:34:45;;;;;;;1.35;0.40;;;14.40;99.90;;;;;;5031858;28;20091;-37
2022/09/28 10:37:11;;;;;;;1.13;0.17;;;14.30;99.40;;;;;;5028689;28;20045;-37
2022/09/28 10:39:57;;;;;;;0.68;0.10;;;14.20;99.90;;;;;;5022490;28;21380;-37
2022/09/28 10:42:29;;;;;;;5.68;1.85;;;14.30;98.50;;;;;;5026605;28;20046;-37
2022/09/28 10:45:35;;;;;;;0.88;0.10;;;14.40;98.90;;;;;;5026906;28;20056;-40
2022/09/28 10:48:05;;;;;;;0.40;0.13;;;14.50;96.70;;;;;;4990347;28;20065;-38
2022/09/28 10:50:31;;;;;;;1.77;0.20;;;14.60;98.70;;;;;;4991742;28;20038;-38
2022/09/28 10:53:19;;;;;;;0.52;0.10;;;14.70;98.90;;;;;;5008936;28;20512;-36
2022/09/28 10:56:07;;;;;;;0.25;0.10;;;14.80;97.30;;;;;;5024024;28;20149;-37
2022/09/28 10:58:40;;;;;;;0.32;0.10;;;14.70;96.90;;;;;;5027497;28;20041;-38
2022/09/28 11:01:18;;;;;;;0.70;0.20;;;14.80;98.00;;;;;;5031364;28;20041;-36
2022/09/28 11:03:49;;;;;;;0.10;0.10;;;14.80;91.40;;;;;;5033326;28;20083;-38
2022/09/28 11:06:15;;;;;;;1.13;0.10;;;14.70;94.90;;;;;;5013714;28;20128;-38
2022/09/28 11:08:42;;;;;;;0.55;0.20;;;14.60;95.60;;;;;;5031292;28;20033;-37
2022/09/28 11:11:18;;;;;;;1.10;0.20;;;14.50;95.50;;;;;;5022014;28;20100;-37
2022/09/28 11:13:53;;;;;;;1.08;0.20;;;14.80;95.80;;;;;;5015453;28;20052;-37
2022/09/28 11:16:27;;;;;;;2.08;0.20;;;15.00;96.10;;;;;;5026526;28;20057;-37
2022/09/28 11:18:55;;;;;;;2.25;0.30;;;15.10;94.30;;;;;;5032119;28;20126;-38
2022/09/28 11:21:26;;;;;;;2.67;0.20;;;15.40;95.10;;;;;;5029664;28;20036;-38
2022/09/28 11:24:15;;;;;;;5.22;0.50;;;15.50;94.70;;;;;;5008952;28;20045;-38
2022/09/28 11:26:51;;;;;;;2.45;0.30;;;15.50;94.40;;;;;;5035777;28;20041;-37
2022/09/28 11:29:25;;;;;;;0.90;0.15;;;15.40;94.20;;;;;;5037231;28;20037;-37
2022/09/28 11:31:52;;;;;;;0.93;0.20;;;15.20;95.10;;;;;;5029178;28;20037;-37
2022/09/28 11:34:25;;;;;;;3.05;0.25;;;15.10;95.50;;;;;;5029456;28;20533;-36
2022/09/28 11:37:08;;;;;;;2.50;0.30;;;15.00;94.90;;;;;;5026678;28;20042;-36
2022/09/28 11:39:46;;;;;;;0.40;0.10;;;14.80;94.30;;;;;;5020259;28;20457;-37
2022/09/28 11:42:32;;;;;;;0.63;0.00;;;14.60;94.60;;;;;;5034400;28;20065;-37
2022/09/28 11:45:17;;;;;;;0.15;0.00;;;14.50;95.30;;;;;;5031907;28;20052;-36
2022/09/28 11:48:17;;;;;;;1.38;0.10;;;14.10;95.80;;;;;;5009461;28;20044;-37
2022/09/28 11:50:52;;;;;;;0.15;0.05;;;13.70;96.40;;;;;;5023683;28;20041;-37
2022/09/28 11:53:30;;;;;;;1.65;0.10;;;13.50;97.70;;;;;;5042237;28;20612;-38
2022/09/28 11:56:08;;;;;;;1.80;0.10;;;13.30;98.40;;;;;;5029433;28;20491;-37
2022/09/28 11:58:40;;;;;;;0.77;0.15;;;13.00;99.70;;;;;;5028467;28;20041;-37
2022/09/28 12:01:34;;;;;;;0.97;0.10;;;12.80;99.90;;;;;;5028415;28;20124;-38
2022/09/28 12:04:20;;;;;;;0.65;0.10;;;12.40;99.90;;;;;;5027641;28;20026;-36
2022/09/28 12:06:51;;;;;;;0.90;0.13;;;12.10;99.90;;;;;;5025450;28;20434;-37
2022/09/28 12:09:29;;;;;;;0.52;0.08;;;11.90;99.90;;;;;;5025753;28;20397;-37
2022/09/28 12:12:01;;;;;;;0.63;0.00;;;11.80;99.90;;;;;;5031272;28;20505;-38
2022/09/28 12:14:37;;;;;;;0.20;0.00;;;11.80;99.90;;;;;;5024906;28;20033;-39
2022/09/28 12:17:12;;;;;;;0.00;0.00;;;11.70;99.90;;;;;;5023659;28;20040;-38
2022/09/28 12:19:47;;;;;;;0.30;0.00;;;11.80;99.90;;;;;;5020692;28;20065;-38
2022/09/28 12:22:33;;;;;;;0.55;0.10;;;11.80;99.90;;;;;;5029106;28;20104;-39
2022/09/28 12:25:02;;;;;;;2.00;0.32;;;11.90;99.90;;;;;;5024054;28;20064;-39
2022/09/28 12:27:54;;;;;;;0.00;0.00;;;12.00;99.90;;;;;;5037310;28;20048;-37
2022/09/28 12:30:24;;;;;;;0.00;0.00;;;12.10;99.90;;;;;;5024406;28;20095;-37
2022/09/28 12:32:58;;;;;;;0.10;0.00;;;12.20;99.90;;;;;;5034017;28;20041;-38
2022/09/28 12:35:57;;;;;;;0.45;0.10;;;12.40;99.90;;;;;;5023598;28;20318;-37
2022/09/28 12:38:37;;;;;;;0.05;0.00;;;12.60;99.90;;;;;;5025827;28;20037;-38
2022/09/28 12:41:38;;;;;;;0.50;0.05;;;13.60;99.90;;;;;;5025752;28;20426;-35
2022/09/28 12:44:28;;;;;;;0.80;0.30;;;15.00;99.90;;;;;;5026406;28;20527;-35
2022/09/28 12:47:14;;;;;;;1.35;0.30;;;16.00;98.40;;;;;;5023606;28;20049;-36
2022/09/28 12:49:55;;;;;;;1.48;0.30;;;15.90;98.10;;;;;;5027224;28;20422;-37
2022/09/28 12:53:08;;;;;;;1.27;0.30;;;15.60;98.70;;;;;;5027146;28;20040;-36
2022/09/28 12:55:37;;;;;;;3.50;0.25;;;15.20;99.30;;;;;;4981766;28;20046;-36
2022/09/28 12:58:24;;;;;;;0.30;0.10;;;14.80;99.90;;;;;;4984004;28;20038;-39
2022/09/28 13:00:55;;;;;;;0.35;0.20;;;14.50;99.90;;;;;;5012203;28;20108;-39
2022/09/28 13:04:01;;;;;;;0.38;0.13;;;14.30;99.90;;;;;;5025698;28;20043;-36
2022/09/28 13:06:40;;;;;;;0.57;0.10;;;14.10;99.90;;;;;;5030891;28;20613;-37
2022/09/28 13:09:22;;;;;;;0.35;0.10;;;14.00;99.90;;;;;;5022748;28;20048;-38
2022/09/28 13:12:28;;;;;;;0.70;0.20;;;14.10;99.90;;;;;;5029727;28;20052;-36
2022/09/28 13:15:07;;;;;;;9.43;0.30;;;15.20;99.90;;;;;;4961824;28;20051;-38
2022/09/28 13:17:56;;;;;;;0.38;0.10;;;16.70;98.30;;;;;;5020245;28;20801;-38
2022/09/28 13:20:50;;;;;;;0.17;0.10;;;17.80;96.00;;;;;;5023492;28;20030;-37
2022/09/28 13:23:24;;;;;;;0.43;0.10;;;18.40;92.70;;;;;;5035344;28;20041;-38
2022/09/28 13:25:55;;;;;;;0.10;0.08;;;18.70;90.70;;;;;;5028829;28;20045;-38